sensor_id;sensor_type;location;lat;lon;timestamp;pressure;altitude;pressure_sealevel;temperature;humidity
38616;BME280;24370;51.986;4.666;2023-06-14T00:01:11;101584.19;;;29.82;28.18
38616;BME280;24370;51.986;4.666;2023-06-14T00:03:38;101585.69;;;29.86;27.11
38616;BME280;24370;51.986;4.666;2023-06-14T00:06:04;101602.88;;;29.03;27.70
38616;BME280;24370;51.986;4.666;2023-06-14T00:08:30;101598.44;;;28.90;27.70
38616;BME280;24370;51.986;4.666;2023-06-14T00:10:55;101596.34;;;28.83;29.17
38616;BME280;24370;51.986;4.666;2023-06-14T00:13:20;101587.47;;;28.93;27.75
38616;BME280;24370;51.986;4.666;2023-06-14T00:15:46;101585.38;;;29.33;27.88
38616;BME280;24370;51.986;4.666;2023-06-14T00:18:12;101583.44;;;29.57;27.54
38616;BME280;24370;51.986;4.666;2023-06-14T00:20:38;101586.56;;;29.17;28.45
38616;BME280;24370;51.986;4.666;2023-06-14T00:23:04;101593.84;;;29.28;28.18
38616;BME280;24370;51.986;4.666;2023-06-14T00:25:30;101593.72;;;29.30;27.89
38616;BME280;24370;51.986;4.666;2023-06-14T00:27:56;101597.16;;;29.54;28.81
38616;BME280;24370;51.986;4.666;2023-06-14T00:30:22;101597.91;;;29.21;28.40
38616;BME280;24370;51.986;4.666;2023-06-14T00:32:47;101600.84;;;29.18;28.00
38616;BME280;24370;51.986;4.666;2023-06-14T00:35:13;101594.72;;;29.51;28.65
38616;BME280;24370;51.986;4.666;2023-06-14T00:37:39;101592.25;;;29.48;29.48
38616;BME280;24370;51.986;4.666;2023-06-14T00:40:05;101596.59;;;28.18;29.66
38616;BME280;24370;51.986;4.666;2023-06-14T00:42:31;101593.53;;;29.20;29.13
38616;BME280;24370;51.986;4.666;2023-06-14T00:44:57;101595.03;;;28.40;29.99
38616;BME280;24370;51.986;4.666;2023-06-14T00:47:23;101596.09;;;29.21;28.89
38616;BME280;24370;51.986;4.666;2023-06-14T00:49:53;101598.38;;;29.03;29.19
38616;BME280;24370;51.986;4.666;2023-06-14T00:52:19;101597.88;;;28.74;28.99
38616;BME280;24370;51.986;4.666;2023-06-14T00:54:44;101596.41;;;29.41;28.54
38616;BME280;24370;51.986;4.666;2023-06-14T00:57:10;101603.22;;;29.22;28.56
38616;BME280;24370;51.986;4.666;2023-06-14T00:59:45;101596.09;;;28.37;29.68
38616;BME280;24370;51.986;4.666;2023-06-14T01:02:12;101597.44;;;28.80;28.87
38616;BME280;24370;51.986;4.666;2023-06-14T01:04:40;101595.22;;;28.00;29.67
38616;BME280;24370;51.986;4.666;2023-06-14T01:07:40;101597.41;;;28.32;28.85
38616;BME280;24370;51.986;4.666;2023-06-14T01:13:05;101593.81;;;28.44;28.29
38616;BME280;24370;51.986;4.666;2023-06-14T01:15:33;101589.19;;;28.46;28.30
38616;BME280;24370;51.986;4.666;2023-06-14T01:18:02;101589.25;;;28.20;27.85
38616;BME280;24370;51.986;4.666;2023-06-14T01:20:29;101583.56;;;28.49;29.05
38616;BME280;24370;51.986;4.666;2023-06-14T01:22:56;101591.63;;;28.25;28.83
38616;BME280;24370;51.986;4.666;2023-06-14T01:25:22;101590.22;;;28.56;27.26
38616;BME280;24370;51.986;4.666;2023-06-14T01:27:59;101587.41;;;28.58;27.36
38616;BME280;24370;51.986;4.666;2023-06-14T01:30:25;101588.22;;;28.10;27.83
38616;BME280;24370;51.986;4.666;2023-06-14T01:32:53;101586.50;;;28.09;28.00
38616;BME280;24370;51.986;4.666;2023-06-14T01:35:20;101581.22;;;28.44;27.06
38616;BME280;24370;51.986;4.666;2023-06-14T01:37:47;101582.50;;;28.27;27.37
38616;BME280;24370;51.986;4.666;2023-06-14T01:40:14;101594.03;;;28.04;27.52
38616;BME280;24370;51.986;4.666;2023-06-14T01:42:40;101597.63;;;28.29;26.85
38616;BME280;24370;51.986;4.666;2023-06-14T01:45:07;101588.22;;;28.10;27.24
38616;BME280;24370;51.986;4.666;2023-06-14T01:47:33;101589.94;;;28.11;27.32
38616;BME280;24370;51.986;4.666;2023-06-14T01:49:59;101590.13;;;28.21;27.56
38616;BME280;24370;51.986;4.666;2023-06-14T01:52:25;101592.72;;;28.22;27.05
38616;BME280;24370;51.986;4.666;2023-06-14T01:54:50;101590.38;;;28.05;27.14
38616;BME280;24370;51.986;4.666;2023-06-14T01:57:16;101580.22;;;28.21;26.68
38616;BME280;24370;51.986;4.666;2023-06-14T01:59:42;101585.03;;;27.40;28.28
38616;BME280;24370;51.986;4.666;2023-06-14T02:02:07;101580.69;;;28.15;27.68
38616;BME280;24370;51.986;4.666;2023-06-14T02:04:33;101584.41;;;27.37;28.08
38616;BME280;24370;51.986;4.666;2023-06-14T02:06:58;101581.97;;;27.97;27.37
38616;BME280;24370;51.986;4.666;2023-06-14T02:09:24;101582.25;;;27.42;28.34
38616;BME280;24370;51.986;4.666;2023-06-14T02:11:50;101585.69;;;27.44;28.00
38616;BME280;24370;51.986;4.666;2023-06-14T02:14:15;101588.16;;;27.47;27.42
38616;BME280;24370;51.986;4.666;2023-06-14T02:16:41;101583.28;;;27.26;28.27
38616;BME280;24370;51.986;4.666;2023-06-14T02:19:18;101586.53;;;27.32;27.71
38616;BME280;24370;51.986;4.666;2023-06-14T02:21:44;101584.28;;;27.51;28.03
38616;BME280;24370;51.986;4.666;2023-06-14T02:24:10;101578.75;;;27.91;27.49
38616;BME280;24370;51.986;4.666;2023-06-14T02:26:36;101585.06;;;28.16;27.24
38616;BME280;24370;51.986;4.666;2023-06-14T02:29:03;101591.47;;;28.02;27.07
38616;BME280;24370;51.986;4.666;2023-06-14T02:31:29;101591.47;;;27.38;27.57
38616;BME280;24370;51.986;4.666;2023-06-14T02:33:55;101594.06;;;27.52;27.84
38616;BME280;24370;51.986;4.666;2023-06-14T02:36:20;101598.03;;;27.47;27.75
38616;BME280;24370;51.986;4.666;2023-06-14T02:38:45;101592.13;;;27.80;27.29
38616;BME280;24370;51.986;4.666;2023-06-14T02:41:11;101594.06;;;27.39;28.41
38616;BME280;24370;51.986;4.666;2023-06-14T02:43:37;101594.28;;;27.49;28.20
38616;BME280;24370;51.986;4.666;2023-06-14T02:46:03;101597.66;;;27.25;28.38
38616;BME280;24370;51.986;4.666;2023-06-14T02:48:29;101593.63;;;27.58;27.55
38616;BME280;24370;51.986;4.666;2023-06-14T02:50:55;101593.84;;;27.81;27.24
38616;BME280;24370;51.986;4.666;2023-06-14T02:53:21;101605.03;;;27.62;27.43
38616;BME280;24370;51.986;4.666;2023-06-14T02:55:47;101602.53;;;27.46;28.45
38616;BME280;24370;51.986;4.666;2023-06-14T02:58:13;101607.06;;;28.34;27.69
38616;BME280;24370;51.986;4.666;2023-06-14T03:00:39;101603.94;;;27.90;27.42
38616;BME280;24370;51.986;4.666;2023-06-14T03:03:06;101607.69;;;28.38;27.42
38616;BME280;24370;51.986;4.666;2023-06-14T03:05:39;101613.53;;;28.32;27.64
38616;BME280;24370;51.986;4.666;2023-06-14T03:08:06;101603.19;;;28.63;27.60
38616;BME280;24370;51.986;4.666;2023-06-14T03:10:32;101609.84;;;28.94;27.79
38616;BME280;24370;51.986;4.666;2023-06-14T03:12:57;101611.72;;;28.56;28.39
38616;BME280;24370;51.986;4.666;2023-06-14T03:15:23;101617.97;;;28.57;27.69
38616;BME280;24370;51.986;4.666;2023-06-14T03:17:49;101627.03;;;28.43;27.58
38616;BME280;24370;51.986;4.666;2023-06-14T03:20:16;101626.50;;;27.88;28.02
38616;BME280;24370;51.986;4.666;2023-06-14T03:22:41;101628.84;;;28.05;28.04
38616;BME280;24370;51.986;4.666;2023-06-14T03:25:07;101624.66;;;28.38;28.47
38616;BME280;24370;51.986;4.666;2023-06-14T03:27:37;101639.81;;;27.89;29.14
38616;BME280;24370;51.986;4.666;2023-06-14T03:30:03;101640.59;;;27.25;30.41
38616;BME280;24370;51.986;4.666;2023-06-14T03:32:28;101636.38;;;27.36;30.16
38616;BME280;24370;51.986;4.666;2023-06-14T03:34:54;101642.16;;;27.55;30.08
38616;BME280;24370;51.986;4.666;2023-06-14T03:37:20;101648.41;;;27.82;31.07
38616;BME280;24370;51.986;4.666;2023-06-14T03:39:46;101643.47;;;27.63;31.04
38616;BME280;24370;51.986;4.666;2023-06-14T03:42:13;101642.19;;;27.15;29.88
38616;BME280;24370;51.986;4.666;2023-06-14T03:44:39;101640.88;;;27.48;30.35
38616;BME280;24370;51.986;4.666;2023-06-14T03:47:05;101644.03;;;27.28;31.08
38616;BME280;24370;51.986;4.666;2023-06-14T03:49:30;101651.31;;;27.66;31.29
38616;BME280;24370;51.986;4.666;2023-06-14T03:51:56;101654.94;;;27.52;30.14
38616;BME280;24370;51.986;4.666;2023-06-14T03:54:21;101657.41;;;27.42;30.72
38616;BME280;24370;51.986;4.666;2023-06-14T03:56:47;101650.84;;;26.93;31.06
38616;BME280;24370;51.986;4.666;2023-06-14T03:59:12;101661.66;;;27.32;31.75
38616;BME280;24370;51.986;4.666;2023-06-14T04:01:38;101648.94;;;27.08;31.63
38616;BME280;24370;51.986;4.666;2023-06-14T04:04:03;101655.25;;;27.47;30.35
38616;BME280;24370;51.986;4.666;2023-06-14T04:06:29;101660.09;;;27.81;30.98
38616;BME280;24370;51.986;4.666;2023-06-14T04:08:58;101663.13;;;27.63;30.63
38616;BME280;24370;51.986;4.666;2023-06-14T04:11:27;101656.88;;;27.63;30.70
38616;BME280;24370;51.986;4.666;2023-06-14T04:13:52;101666.66;;;27.64;30.52
38616;BME280;24370;51.986;4.666;2023-06-14T04:16:19;101659.78;;;27.59;31.74
38616;BME280;24370;51.986;4.666;2023-06-14T04:18:44;101667.41;;;27.79;29.39
38616;BME280;24370;51.986;4.666;2023-06-14T04:21:11;101670.44;;;27.34;30.12
38616;BME280;24370;51.986;4.666;2023-06-14T04:23:37;101675.91;;;27.85;30.00
38616;BME280;24370;51.986;4.666;2023-06-14T04:26:03;101673.44;;;27.16;30.18
38616;BME280;24370;51.986;4.666;2023-06-14T04:28:28;101670.31;;;26.82;31.63
38616;BME280;24370;51.986;4.666;2023-06-14T04:30:54;101673.09;;;27.08;30.56
38616;BME280;24370;51.986;4.666;2023-06-14T04:33:19;101675.25;;;27.69;30.51
38616;BME280;24370;51.986;4.666;2023-06-14T04:35:45;101676.34;;;27.53;30.33
38616;BME280;24370;51.986;4.666;2023-06-14T04:38:12;101677.63;;;27.61;29.94
38616;BME280;24370;51.986;4.666;2023-06-14T04:40:38;101669.66;;;27.85;29.91
38616;BME280;24370;51.986;4.666;2023-06-14T04:43:10;101672.25;;;27.61;29.64
38616;BME280;24370;51.986;4.666;2023-06-14T04:45:42;101675.69;;;27.88;29.13
38616;BME280;24370;51.986;4.666;2023-06-14T04:48:10;101668.94;;;28.58;27.70
38616;BME280;24370;51.986;4.666;2023-06-14T04:50:36;101672.28;;;29.35;26.70
38616;BME280;24370;51.986;4.666;2023-06-14T04:53:02;101676.81;;;30.15;25.73
38616;BME280;24370;51.986;4.666;2023-06-14T04:55:28;101666.16;;;31.45;24.38
38616;BME280;24370;51.986;4.666;2023-06-14T04:57:53;101669.03;;;32.05;24.06
38616;BME280;24370;51.986;4.666;2023-06-14T05:00:22;101670.19;;;32.03;23.25
38616;BME280;24370;51.986;4.666;2023-06-14T05:02:48;101672.91;;;32.03;23.21
38616;BME280;24370;51.986;4.666;2023-06-14T05:05:14;101678.41;;;32.83;21.83
38616;BME280;24370;51.986;4.666;2023-06-14T05:07:40;101673.59;;;34.20;21.74
38616;BME280;24370;51.986;4.666;2023-06-14T05:10:06;101680.72;;;33.36;21.89
38616;BME280;24370;51.986;4.666;2023-06-14T05:12:32;101671.25;;;33.21;21.17
38616;BME280;24370;51.986;4.666;2023-06-14T05:14:57;101679.63;;;33.67;21.10
38616;BME280;24370;51.986;4.666;2023-06-14T05:17:23;101681.56;;;33.17;22.49
38616;BME280;24370;51.986;4.666;2023-06-14T05:19:49;101688.06;;;33.54;21.25
38616;BME280;24370;51.986;4.666;2023-06-14T05:22:14;101689.81;;;33.06;22.06
38616;BME280;24370;51.986;4.666;2023-06-14T05:24:40;101685.97;;;31.34;23.50
38616;BME280;24370;51.986;4.666;2023-06-14T05:27:06;101691.50;;;30.56;24.36
38616;BME280;24370;51.986;4.666;2023-06-14T05:29:32;101693.25;;;30.12;25.25
38616;BME280;24370;51.986;4.666;2023-06-14T05:31:57;101699.06;;;29.72;25.13
38616;BME280;24370;51.986;4.666;2023-06-14T05:34:23;101694.53;;;29.13;26.20
38616;BME280;24370;51.986;4.666;2023-06-14T05:36:48;101699.72;;;27.51;27.80
38616;BME280;24370;51.986;4.666;2023-06-14T05:39:13;101692.00;;;28.37;27.00
38616;BME280;24370;51.986;4.666;2023-06-14T05:41:39;101694.81;;;28.22;27.54
38616;BME280;24370;51.986;4.666;2023-06-14T05:44:04;101695.22;;;28.42;27.57
38616;BME280;24370;51.986;4.666;2023-06-14T05:46:29;101706.00;;;28.16;27.61
38616;BME280;24370;51.986;4.666;2023-06-14T05:48:55;101703.41;;;27.76;27.57
38616;BME280;24370;51.986;4.666;2023-06-14T05:51:21;101705.31;;;27.21;28.82
38616;BME280;24370;51.986;4.666;2023-06-14T05:53:47;101706.13;;;26.81;28.98
38616;BME280;24370;51.986;4.666;2023-06-14T05:56:17;101711.13;;;27.68;28.72
38616;BME280;24370;51.986;4.666;2023-06-14T05:58:43;101713.25;;;27.37;28.88
38616;BME280;24370;51.986;4.666;2023-06-14T06:01:09;101709.88;;;27.86;28.01
38616;BME280;24370;51.986;4.666;2023-06-14T06:03:35;101709.84;;;27.61;28.56
38616;BME280;24370;51.986;4.666;2023-06-14T06:06:00;101710.94;;;28.09;27.85
38616;BME280;24370;51.986;4.666;2023-06-14T06:08:26;101713.97;;;28.05;28.42
38616;BME280;24370;51.986;4.666;2023-06-14T06:10:52;101704.22;;;28.67;27.92
38616;BME280;24370;51.986;4.666;2023-06-14T06:13:17;101717.22;;;28.97;27.38
38616;BME280;24370;51.986;4.666;2023-06-14T06:15:43;101708.03;;;30.40;25.73
38616;BME280;24370;51.986;4.666;2023-06-14T06:18:08;101706.38;;;30.94;24.17
38616;BME280;24370;51.986;4.666;2023-06-14T06:20:33;101708.34;;;32.81;22.18
38616;BME280;24370;51.986;4.666;2023-06-14T06:22:59;101712.78;;;33.41;21.57
38616;BME280;24370;51.986;4.666;2023-06-14T06:25:25;101709.59;;;35.14;20.58
38616;BME280;24370;51.986;4.666;2023-06-14T06:27:52;101711.16;;;35.35;19.75
38616;BME280;24370;51.986;4.666;2023-06-14T06:30:19;101713.22;;;35.05;19.40
38616;BME280;24370;51.986;4.666;2023-06-14T06:32:44;101727.69;;;36.28;18.75
38616;BME280;24370;51.986;4.666;2023-06-14T06:35:11;101723.09;;;35.06;18.95
38616;BME280;24370;51.986;4.666;2023-06-14T06:37:38;101720.97;;;35.80;18.89
38616;BME280;24370;51.986;4.666;2023-06-14T06:40:03;101724.47;;;35.10;19.66
38616;BME280;24370;51.986;4.666;2023-06-14T06:42:31;101726.19;;;35.99;18.26
38616;BME280;24370;51.986;4.666;2023-06-14T06:44:56;101729.00;;;36.50;17.80
38616;BME280;24370;51.986;4.666;2023-06-14T06:47:22;101742.06;;;36.39;17.63
38616;BME280;24370;51.986;4.666;2023-06-14T06:49:47;101730.50;;;37.62;16.88
38616;BME280;24370;51.986;4.666;2023-06-14T06:52:13;101738.03;;;37.76;16.49
38616;BME280;24370;51.986;4.666;2023-06-14T06:54:39;101745.50;;;38.39;16.60
38616;BME280;24370;51.986;4.666;2023-06-14T06:57:04;101753.31;;;37.94;16.37
38616;BME280;24370;51.986;4.666;2023-06-14T06:59:31;101748.16;;;37.99;16.79
38616;BME280;24370;51.986;4.666;2023-06-14T07:01:57;101745.00;;;37.62;16.40
38616;BME280;24370;51.986;4.666;2023-06-14T07:04:22;101749.88;;;36.84;16.99
38616;BME280;24370;51.986;4.666;2023-06-14T07:06:48;101758.28;;;36.22;17.52
38616;BME280;24370;51.986;4.666;2023-06-14T07:09:13;101754.97;;;36.37;18.05
38616;BME280;24370;51.986;4.666;2023-06-14T07:11:39;101768.84;;;36.25;17.20
38616;BME280;24370;51.986;4.666;2023-06-14T07:14:05;101762.59;;;36.76;17.34
38616;BME280;24370;51.986;4.666;2023-06-14T07:16:30;101755.22;;;35.91;18.50
38616;BME280;24370;51.986;4.666;2023-06-14T07:18:56;101765.69;;;38.21;16.76
38616;BME280;24370;51.986;4.666;2023-06-14T07:21:21;101768.31;;;39.55;15.52
38616;BME280;24370;51.986;4.666;2023-06-14T07:23:47;101769.03;;;38.40;15.83
38616;BME280;24370;51.986;4.666;2023-06-14T07:26:12;101768.41;;;39.85;15.02
38616;BME280;24370;51.986;4.666;2023-06-14T07:28:37;101773.31;;;40.34;15.74
38616;BME280;24370;51.986;4.666;2023-06-14T07:31:03;101775.97;;;38.90;15.33
38616;BME280;24370;51.986;4.666;2023-06-14T07:33:28;101784.03;;;41.02;14.22
38616;BME280;24370;51.986;4.666;2023-06-14T07:35:53;101773.16;;;41.81;14.97
38616;BME280;24370;51.986;4.666;2023-06-14T07:38:19;101778.78;;;41.44;14.36
38616;BME280;24370;51.986;4.666;2023-06-14T07:40:44;101779.38;;;40.81;14.01
38616;BME280;24370;51.986;4.666;2023-06-14T07:43:10;101789.13;;;39.18;14.91
38616;BME280;24370;51.986;4.666;2023-06-14T07:45:36;101779.34;;;39.85;15.46
38616;BME280;24370;51.986;4.666;2023-06-14T07:48:02;101782.59;;;40.85;15.63
38616;BME280;24370;51.986;4.666;2023-06-14T07:50:28;101786.34;;;41.92;14.27
38616;BME280;24370;51.986;4.666;2023-06-14T07:52:54;101788.47;;;39.77;14.63
38616;BME280;24370;51.986;4.666;2023-06-14T07:55:19;101790.28;;;40.45;15.54
38616;BME280;24370;51.986;4.666;2023-06-14T07:57:44;101792.72;;;41.78;14.25
38616;BME280;24370;51.986;4.666;2023-06-14T08:00:10;101791.34;;;41.60;13.93
38616;BME280;24370;51.986;4.666;2023-06-14T08:02:41;101799.75;;;42.57;13.57
38616;BME280;24370;51.986;4.666;2023-06-14T08:05:09;101806.56;;;40.31;14.00
38616;BME280;24370;51.986;4.666;2023-06-14T08:07:35;101796.34;;;39.57;15.31
38616;BME280;24370;51.986;4.666;2023-06-14T08:10:00;101800.13;;;40.24;14.67
38616;BME280;24370;51.986;4.666;2023-06-14T08:12:25;101792.03;;;39.40;14.57
38616;BME280;24370;51.986;4.666;2023-06-14T08:14:51;101798.72;;;39.60;14.96
38616;BME280;24370;51.986;4.666;2023-06-14T08:17:16;101792.41;;;39.75;14.91
38616;BME280;24370;51.986;4.666;2023-06-14T08:19:42;101790.13;;;40.31;14.59
38616;BME280;24370;51.986;4.666;2023-06-14T08:22:07;101797.19;;;38.80;14.93
38616;BME280;24370;51.986;4.666;2023-06-14T08:24:33;101789.38;;;40.08;15.11
38616;BME280;24370;51.986;4.666;2023-06-14T08:26:58;101787.31;;;41.84;14.72
38616;BME280;24370;51.986;4.666;2023-06-14T08:29:26;101795.81;;;42.66;13.59
38616;BME280;24370;51.986;4.666;2023-06-14T08:31:54;101794.34;;;42.70;13.16
38616;BME280;24370;51.986;4.666;2023-06-14T08:34:20;101799.56;;;43.67;12.26
38616;BME280;24370;51.986;4.666;2023-06-14T08:36:45;101798.97;;;42.70;13.10
38616;BME280;24370;51.986;4.666;2023-06-14T08:39:10;101802.84;;;40.69;13.69
38616;BME280;24370;51.986;4.666;2023-06-14T08:41:36;101794.19;;;44.13;12.47
38616;BME280;24370;51.986;4.666;2023-06-14T08:44:02;101795.47;;;44.03;11.89
38616;BME280;24370;51.986;4.666;2023-06-14T08:46:32;101789.38;;;43.88;12.06
38616;BME280;24370;51.986;4.666;2023-06-14T08:48:59;101795.38;;;41.36;13.01
38616;BME280;24370;51.986;4.666;2023-06-14T08:51:25;101793.56;;;41.07;13.22
38616;BME280;24370;51.986;4.666;2023-06-14T08:53:59;101785.75;;;42.03;12.96
38616;BME280;24370;51.986;4.666;2023-06-14T08:56:27;101788.34;;;42.60;12.70
38616;BME280;24370;51.986;4.666;2023-06-14T08:58:54;101790.50;;;40.58;13.44
38616;BME280;24370;51.986;4.666;2023-06-14T09:01:22;101797.22;;;43.37;11.58
38616;BME280;24370;51.986;4.666;2023-06-14T09:03:49;101799.78;;;43.72;11.50
38616;BME280;24370;51.986;4.666;2023-06-14T09:06:14;101805.88;;;44.01;11.69
38616;BME280;24370;51.986;4.666;2023-06-14T09:08:45;101796.56;;;43.82;11.28
38616;BME280;24370;51.986;4.666;2023-06-14T09:11:16;101801.66;;;43.92;11.56
38616;BME280;24370;51.986;4.666;2023-06-14T09:13:43;101803.00;;;44.42;10.99
38616;BME280;24370;51.986;4.666;2023-06-14T09:16:09;101796.75;;;44.08;11.20
38616;BME280;24370;51.986;4.666;2023-06-14T09:18:42;101804.53;;;44.17;11.70
38616;BME280;24370;51.986;4.666;2023-06-14T09:21:10;101810.41;;;42.74;11.59
38616;BME280;24370;51.986;4.666;2023-06-14T09:23:40;101809.41;;;42.40;12.13
38616;BME280;24370;51.986;4.666;2023-06-14T09:26:14;101808.63;;;40.96;13.23
38616;BME280;24370;51.986;4.666;2023-06-14T09:28:47;101811.66;;;41.94;13.29
38616;BME280;24370;51.986;4.666;2023-06-14T09:31:14;101806.69;;;41.54;12.76
38616;BME280;24370;51.986;4.666;2023-06-14T09:33:45;101803.78;;;40.61;13.27
38616;BME280;24370;51.986;4.666;2023-06-14T09:36:24;101814.97;;;40.96;13.62
38616;BME280;24370;51.986;4.666;2023-06-14T09:39:03;101814.16;;;43.88;12.12
38616;BME280;24370;51.986;4.666;2023-06-14T09:41:39;101820.91;;;43.25;10.95
38616;BME280;24370;51.986;4.666;2023-06-14T09:44:06;101813.50;;;41.15;12.06
38616;BME280;24370;51.986;4.666;2023-06-14T09:46:32;101817.81;;;42.80;12.41
38616;BME280;24370;51.986;4.666;2023-06-14T09:48:59;101810.75;;;43.86;11.28
38616;BME280;24370;51.986;4.666;2023-06-14T09:51:25;101809.69;;;43.80;11.01
38616;BME280;24370;51.986;4.666;2023-06-14T09:53:52;101816.47;;;43.37;11.24
38616;BME280;24370;51.986;4.666;2023-06-14T09:56:23;101805.03;;;43.20;11.27
38616;BME280;24370;51.986;4.666;2023-06-14T09:58:54;101810.56;;;43.27;11.23
38616;BME280;24370;51.986;4.666;2023-06-14T10:01:20;101816.72;;;43.56;11.83
38616;BME280;24370;51.986;4.666;2023-06-14T10:03:49;101814.16;;;41.89;11.96
38616;BME280;24370;51.986;4.666;2023-06-14T10:06:16;101813.53;;;43.32;10.91
38616;BME280;24370;51.986;4.666;2023-06-14T10:08:43;101814.31;;;44.13;10.50
38616;BME280;24370;51.986;4.666;2023-06-14T10:11:08;101810.13;;;43.97;10.78
38616;BME280;24370;51.986;4.666;2023-06-14T10:13:35;101816.16;;;42.92;10.14
38616;BME280;24370;51.986;4.666;2023-06-14T10:16:24;101807.41;;;44.56;9.69
38616;BME280;24370;51.986;4.666;2023-06-14T10:19:12;101812.03;;;45.33;9.42
38616;BME280;24370;51.986;4.666;2023-06-14T10:22:02;101807.09;;;44.19;9.83
38616;BME280;24370;51.986;4.666;2023-06-14T10:24:33;101813.13;;;43.49;10.26
38616;BME280;24370;51.986;4.666;2023-06-14T10:27:01;101817.56;;;43.50;10.09
38616;BME280;24370;51.986;4.666;2023-06-14T10:29:29;101812.22;;;43.08;10.40
38616;BME280;24370;51.986;4.666;2023-06-14T10:31:59;101809.28;;;43.36;10.17
38616;BME280;24370;51.986;4.666;2023-06-14T10:34:29;101808.84;;;44.07;9.85
38616;BME280;24370;51.986;4.666;2023-06-14T10:37:06;101802.50;;;43.12;10.13
38616;BME280;24370;51.986;4.666;2023-06-14T10:39:52;101803.47;;;45.16;9.47
38616;BME280;24370;51.986;4.666;2023-06-14T10:42:19;101813.50;;;43.93;10.96
38616;BME280;24370;51.986;4.666;2023-06-14T10:47:20;101807.75;;;44.66;10.02
38616;BME280;24370;51.986;4.666;2023-06-14T10:49:51;101809.06;;;45.34;9.64
38616;BME280;24370;51.986;4.666;2023-06-14T10:52:21;101813.28;;;44.66;10.30
38616;BME280;24370;51.986;4.666;2023-06-14T10:54:59;101814.47;;;45.48;10.04
38616;BME280;24370;51.986;4.666;2023-06-14T10:57:25;101809.56;;;42.80;10.95
38616;BME280;24370;51.986;4.666;2023-06-14T10:59:50;101813.31;;;43.34;10.81
38616;BME280;24370;51.986;4.666;2023-06-14T11:04:49;101796.69;;;42.25;11.48
38616;BME280;24370;51.986;4.666;2023-06-14T11:12:59;101803.78;;;43.63;11.10
38616;BME280;24370;51.986;4.666;2023-06-14T11:15:31;101802.66;;;41.50;10.84
38616;BME280;24370;51.986;4.666;2023-06-14T11:17:57;101800.56;;;40.73;11.26
38616;BME280;24370;51.986;4.666;2023-06-14T11:20:27;101798.63;;;41.46;12.58
38616;BME280;24370;51.986;4.666;2023-06-14T11:22:53;101789.81;;;43.18;10.57
38616;BME280;24370;51.986;4.666;2023-06-14T11:25:19;101781.97;;;43.82;9.99
38616;BME280;24370;51.986;4.666;2023-06-14T11:27:45;101797.34;;;44.23;10.02
38616;BME280;24370;51.986;4.666;2023-06-14T11:30:12;101793.41;;;42.50;10.79
38616;BME280;24370;51.986;4.666;2023-06-14T11:32:38;101786.84;;;43.80;10.42
38616;BME280;24370;51.986;4.666;2023-06-14T11:35:04;101785.13;;;43.85;10.19
38616;BME280;24370;51.986;4.666;2023-06-14T11:37:31;101786.25;;;42.62;10.47
38616;BME280;24370;51.986;4.666;2023-06-14T11:39:58;101783.69;;;40.54;11.05
38616;BME280;24370;51.986;4.666;2023-06-14T11:42:26;101782.69;;;41.13;10.69
38616;BME280;24370;51.986;4.666;2023-06-14T11:44:53;101774.94;;;41.39;11.28
38616;BME280;24370;51.986;4.666;2023-06-14T11:47:19;101781.09;;;41.04;10.86
38616;BME280;24370;51.986;4.666;2023-06-14T11:49:44;101768.75;;;40.72;10.94
38616;BME280;24370;51.986;4.666;2023-06-14T11:52:10;101781.97;;;41.26;10.68
38616;BME280;24370;51.986;4.666;2023-06-14T11:54:36;101776.34;;;41.34;11.37
38616;BME280;24370;51.986;4.666;2023-06-14T11:57:03;101770.19;;;40.23;11.23
38616;BME280;24370;51.986;4.666;2023-06-14T11:59:29;101777.91;;;41.44;11.16
38616;BME280;24370;51.986;4.666;2023-06-14T12:01:56;101781.63;;;40.93;10.80
38616;BME280;24370;51.986;4.666;2023-06-14T12:04:26;101777.53;;;41.03;10.90
38616;BME280;24370;51.986;4.666;2023-06-14T12:06:52;101779.13;;;39.72;11.85
38616;BME280;24370;51.986;4.666;2023-06-14T12:09:18;101772.13;;;40.74;12.00
38616;BME280;24370;51.986;4.666;2023-06-14T12:11:45;101780.09;;;37.90;12.50
38616;BME280;24370;51.986;4.666;2023-06-14T12:14:10;101776.97;;;39.67;12.79
38616;BME280;24370;51.986;4.666;2023-06-14T12:16:40;101779.22;;;39.17;12.28
38616;BME280;24370;51.986;4.666;2023-06-14T12:19:14;101775.19;;;39.89;11.74
38616;BME280;24370;51.986;4.666;2023-06-14T12:21:40;101770.97;;;40.83;12.20
38616;BME280;24370;51.986;4.666;2023-06-14T12:24:06;101773.13;;;40.21;12.35
38616;BME280;24370;51.986;4.666;2023-06-14T12:26:32;101781.63;;;39.20;12.05
38616;BME280;24370;51.986;4.666;2023-06-14T12:28:58;101783.78;;;39.48;12.01
38616;BME280;24370;51.986;4.666;2023-06-14T12:31:24;101784.03;;;39.91;12.54
38616;BME280;24370;51.986;4.666;2023-06-14T12:33:49;101776.13;;;39.58;11.95
38616;BME280;24370;51.986;4.666;2023-06-14T12:36:15;101777.19;;;39.57;13.00
38616;BME280;24370;51.986;4.666;2023-06-14T12:38:42;101779.00;;;40.18;12.15
38616;BME280;24370;51.986;4.666;2023-06-14T12:41:07;101777.22;;;39.34;12.50
38616;BME280;24370;51.986;4.666;2023-06-14T12:43:33;101769.28;;;40.15;12.38
38616;BME280;24370;51.986;4.666;2023-06-14T12:45:59;101769.56;;;41.30;12.14
38616;BME280;24370;51.986;4.666;2023-06-14T12:48:25;101776.69;;;40.36;12.22
38616;BME280;24370;51.986;4.666;2023-06-14T12:50:52;101775.56;;;40.31;12.36
38616;BME280;24370;51.986;4.666;2023-06-14T12:53:18;101782.44;;;39.82;13.62
38616;BME280;24370;51.986;4.666;2023-06-14T12:55:43;101767.75;;;40.28;12.63
38616;BME280;24370;51.986;4.666;2023-06-14T12:58:09;101773.81;;;38.46;13.30
38616;BME280;24370;51.986;4.666;2023-06-14T13:00:35;101765.53;;;39.63;12.64
38616;BME280;24370;51.986;4.666;2023-06-14T13:03:00;101766.03;;;39.67;11.87